Terminal Aerodrome Forecast
Issued by NWS

Home | Current Version | Previous Version | Text Only | Print | Product List | Glossary On
Versions: 1 2 3 4 5 6 7 8 9 10 11 12 13 14 15 16 17 18 19 20 21 22 23 24
000
FTUS46 KOTX 310520
TAFPUW
TAF
KPUW 310520Z 3106/0106 VRB02KT P6SM SCT200
     FM311800 27006KT P6SM FEW200
     FM010300 VRB02KT P6SM SCT150=

USA.gov is the U.S. government's official web portal to all federal, state and local government web resources and services.